sensor_id;sensor_type;location;lat;lon;timestamp;P1;durP1;ratioP1;P2;durP2;ratioP2
76552;SDS011;65395;53.168;18.156;2023-05-10T00:00:46;6.20;;;3.50;;
76552;SDS011;65395;53.168;18.156;2023-05-10T00:03:13;6.10;;;3.60;;
76552;SDS011;65395;53.168;18.156;2023-05-10T00:05:39;7.70;;;4.10;;
76552;SDS011;65395;53.168;18.156;2023-05-10T00:08:06;8.20;;;3.70;;
76552;SDS011;65395;53.168;18.156;2023-05-10T00:10:36;6.50;;;3.70;;
76552;SDS011;65395;53.168;18.156;2023-05-10T00:13:03;8.60;;;3.90;;
76552;SDS011;65395;53.168;18.156;2023-05-10T00:15:30;6.30;;;3.50;;
76552;SDS011;65395;53.168;18.156;2023-05-10T00:17:57;6.40;;;3.80;;
76552;SDS011;65395;53.168;18.156;2023-05-10T00:20:24;6.00;;;4.00;;
76552;SDS011;65395;53.168;18.156;2023-05-10T00:22:50;6.20;;;3.60;;
76552;SDS011;65395;53.168;18.156;2023-05-10T00:25:17;7.40;;;3.40;;
76552;SDS011;65395;53.168;18.156;2023-05-10T00:27:44;7.90;;;3.80;;
76552;SDS011;65395;53.168;18.156;2023-05-10T00:30:11;5.90;;;3.50;;
76552;SDS011;65395;53.168;18.156;2023-05-10T00:32:37;6.30;;;3.50;;
76552;SDS011;65395;53.168;18.156;2023-05-10T00:35:04;10.00;;;3.50;;
76552;SDS011;65395;53.168;18.156;2023-05-10T00:37:32;6.80;;;3.40;;
76552;SDS011;65395;53.168;18.156;2023-05-10T00:39:59;7.90;;;3.80;;
76552;SDS011;65395;53.168;18.156;2023-05-10T00:42:27;9.80;;;3.60;;
76552;SDS011;65395;53.168;18.156;2023-05-10T00:44:53;6.30;;;3.70;;
76552;SDS011;65395;53.168;18.156;2023-05-10T00:47:20;7.10;;;3.90;;
76552;SDS011;65395;53.168;18.156;2023-05-10T00:49:48;5.50;;;3.70;;
76552;SDS011;65395;53.168;18.156;2023-05-10T00:52:15;7.20;;;3.30;;
76552;SDS011;65395;53.168;18.156;2023-05-10T00:54:42;7.70;;;3.40;;
76552;SDS011;65395;53.168;18.156;2023-05-10T00:57:09;7.30;;;3.70;;
76552;SDS011;65395;53.168;18.156;2023-05-10T00:59:36;6.60;;;4.30;;
76552;SDS011;65395;53.168;18.156;2023-05-10T01:02:03;5.70;;;3.30;;
76552;SDS011;65395;53.168;18.156;2023-05-10T01:04:30;8.70;;;3.40;;
76552;SDS011;65395;53.168;18.156;2023-05-10T01:06:57;7.20;;;3.60;;
76552;SDS011;65395;53.168;18.156;2023-05-10T01:09:24;6.80;;;3.70;;
76552;SDS011;65395;53.168;18.156;2023-05-10T01:11:52;8.70;;;3.70;;
76552;SDS011;65395;53.168;18.156;2023-05-10T01:14:20;5.50;;;3.20;;
76552;SDS011;65395;53.168;18.156;2023-05-10T01:16:48;6.30;;;3.80;;
76552;SDS011;65395;53.168;18.156;2023-05-10T01:19:18;7.60;;;3.70;;
76552;SDS011;65395;53.168;18.156;2023-05-10T01:21:49;7.00;;;3.50;;
76552;SDS011;65395;53.168;18.156;2023-05-10T01:24:33;5.30;;;3.40;;
76552;SDS011;65395;53.168;18.156;2023-05-10T01:27:17;7.50;;;3.60;;
76552;SDS011;65395;53.168;18.156;2023-05-10T01:33:10;6.20;;;3.50;;
76552;SDS011;65395;53.168;18.156;2023-05-10T01:38:38;5.30;;;3.30;;
76552;SDS011;65395;53.168;18.156;2023-05-10T01:46:58;7.40;;;3.20;;
76552;SDS011;65395;53.168;18.156;2023-05-10T01:49:34;7.70;;;3.40;;
76552;SDS011;65395;53.168;18.156;2023-05-10T01:52:09;5.10;;;3.10;;
76552;SDS011;65395;53.168;18.156;2023-05-10T01:54:38;5.20;;;3.20;;
76552;SDS011;65395;53.168;18.156;2023-05-10T01:57:10;6.80;;;3.20;;
76552;SDS011;65395;53.168;18.156;2023-05-10T01:59:40;8.10;;;3.50;;
76552;SDS011;65395;53.168;18.156;2023-05-10T02:02:11;5.80;;;3.60;;
76552;SDS011;65395;53.168;18.156;2023-05-10T02:04:41;7.80;;;3.30;;
76552;SDS011;65395;53.168;18.156;2023-05-10T02:07:09;6.60;;;3.20;;
76552;SDS011;65395;53.168;18.156;2023-05-10T02:09:38;5.80;;;3.40;;
76552;SDS011;65395;53.168;18.156;2023-05-10T02:12:06;8.40;;;3.20;;
76552;SDS011;65395;53.168;18.156;2023-05-10T02:14:35;6.30;;;3.00;;
76552;SDS011;65395;53.168;18.156;2023-05-10T02:17:04;6.60;;;3.30;;
76552;SDS011;65395;53.168;18.156;2023-05-10T02:19:32;6.00;;;3.40;;
76552;SDS011;65395;53.168;18.156;2023-05-10T02:22:02;5.60;;;3.40;;
76552;SDS011;65395;53.168;18.156;2023-05-10T02:24:30;6.10;;;3.50;;
76552;SDS011;65395;53.168;18.156;2023-05-10T02:26:59;5.40;;;3.30;;
76552;SDS011;65395;53.168;18.156;2023-05-10T02:29:28;8.40;;;3.70;;
76552;SDS011;65395;53.168;18.156;2023-05-10T02:31:57;7.90;;;3.20;;
76552;SDS011;65395;53.168;18.156;2023-05-10T02:34:26;7.40;;;3.60;;
76552;SDS011;65395;53.168;18.156;2023-05-10T02:36:54;7.40;;;3.40;;
76552;SDS011;65395;53.168;18.156;2023-05-10T02:39:22;7.40;;;3.70;;
76552;SDS011;65395;53.168;18.156;2023-05-10T02:41:51;9.30;;;3.80;;
76552;SDS011;65395;53.168;18.156;2023-05-10T02:44:19;5.30;;;3.50;;
76552;SDS011;65395;53.168;18.156;2023-05-10T02:46:46;6.80;;;3.60;;
76552;SDS011;65395;53.168;18.156;2023-05-10T02:49:14;4.90;;;3.70;;
76552;SDS011;65395;53.168;18.156;2023-05-10T02:51:43;5.90;;;3.40;;
76552;SDS011;65395;53.168;18.156;2023-05-10T02:54:18;5.40;;;3.60;;
76552;SDS011;65395;53.168;18.156;2023-05-10T02:56:47;7.10;;;3.50;;
76552;SDS011;65395;53.168;18.156;2023-05-10T02:59:20;8.10;;;3.40;;
76552;SDS011;65395;53.168;18.156;2023-05-10T03:01:47;6.70;;;3.90;;
76552;SDS011;65395;53.168;18.156;2023-05-10T03:04:13;8.10;;;3.60;;
76552;SDS011;65395;53.168;18.156;2023-05-10T03:06:41;8.40;;;3.30;;
76552;SDS011;65395;53.168;18.156;2023-05-10T03:09:08;10.60;;;3.30;;
76552;SDS011;65395;53.168;18.156;2023-05-10T03:11:51;5.10;;;3.30;;
76552;SDS011;65395;53.168;18.156;2023-05-10T03:14:34;6.00;;;3.40;;
76552;SDS011;65395;53.168;18.156;2023-05-10T03:17:17;5.10;;;3.10;;
76552;SDS011;65395;53.168;18.156;2023-05-10T03:20:06;6.70;;;3.60;;
76552;SDS011;65395;53.168;18.156;2023-05-10T03:22:37;6.80;;;3.70;;
76552;SDS011;65395;53.168;18.156;2023-05-10T03:25:07;6.40;;;3.90;;
76552;SDS011;65395;53.168;18.156;2023-05-10T03:27:39;7.50;;;3.40;;
76552;SDS011;65395;53.168;18.156;2023-05-10T03:30:08;9.70;;;3.70;;
76552;SDS011;65395;53.168;18.156;2023-05-10T03:32:37;5.90;;;3.40;;
76552;SDS011;65395;53.168;18.156;2023-05-10T03:35:06;7.10;;;3.40;;
76552;SDS011;65395;53.168;18.156;2023-05-10T03:37:35;4.80;;;3.30;;
76552;SDS011;65395;53.168;18.156;2023-05-10T03:40:02;7.50;;;3.50;;
76552;SDS011;65395;53.168;18.156;2023-05-10T03:42:30;5.80;;;3.60;;
76552;SDS011;65395;53.168;18.156;2023-05-10T03:44:57;6.80;;;3.40;;
76552;SDS011;65395;53.168;18.156;2023-05-10T03:47:24;7.40;;;3.60;;
76552;SDS011;65395;53.168;18.156;2023-05-10T03:49:52;7.60;;;3.50;;
76552;SDS011;65395;53.168;18.156;2023-05-10T03:52:19;5.00;;;3.20;;
76552;SDS011;65395;53.168;18.156;2023-05-10T03:54:45;7.50;;;3.60;;
76552;SDS011;65395;53.168;18.156;2023-05-10T03:57:12;5.00;;;3.20;;
76552;SDS011;65395;53.168;18.156;2023-05-10T03:59:39;6.30;;;3.60;;
76552;SDS011;65395;53.168;18.156;2023-05-10T04:02:06;5.30;;;3.20;;
76552;SDS011;65395;53.168;18.156;2023-05-10T04:04:32;5.90;;;3.10;;
76552;SDS011;65395;53.168;18.156;2023-05-10T04:06:59;9.10;;;3.60;;
76552;SDS011;65395;53.168;18.156;2023-05-10T04:09:26;7.40;;;3.80;;
76552;SDS011;65395;53.168;18.156;2023-05-10T04:11:53;8.70;;;3.20;;
76552;SDS011;65395;53.168;18.156;2023-05-10T04:14:19;8.80;;;3.90;;
76552;SDS011;65395;53.168;18.156;2023-05-10T04:16:46;7.40;;;3.50;;
76552;SDS011;65395;53.168;18.156;2023-05-10T04:19:12;5.50;;;3.70;;
76552;SDS011;65395;53.168;18.156;2023-05-10T04:21:39;6.00;;;3.50;;
76552;SDS011;65395;53.168;18.156;2023-05-10T04:24:06;8.10;;;3.40;;
76552;SDS011;65395;53.168;18.156;2023-05-10T04:26:32;9.40;;;3.70;;
76552;SDS011;65395;53.168;18.156;2023-05-10T04:28:59;6.40;;;3.60;;
76552;SDS011;65395;53.168;18.156;2023-05-10T04:31:26;5.20;;;3.30;;
76552;SDS011;65395;53.168;18.156;2023-05-10T04:33:54;7.20;;;3.60;;
76552;SDS011;65395;53.168;18.156;2023-05-10T04:36:20;6.40;;;3.30;;
76552;SDS011;65395;53.168;18.156;2023-05-10T04:38:47;6.10;;;3.70;;
76552;SDS011;65395;53.168;18.156;2023-05-10T04:41:14;7.60;;;3.60;;
76552;SDS011;65395;53.168;18.156;2023-05-10T04:43:41;6.80;;;3.60;;
76552;SDS011;65395;53.168;18.156;2023-05-10T04:46:07;6.20;;;3.60;;
76552;SDS011;65395;53.168;18.156;2023-05-10T04:48:34;8.60;;;3.50;;
76552;SDS011;65395;53.168;18.156;2023-05-10T04:51:01;7.90;;;3.90;;
76552;SDS011;65395;53.168;18.156;2023-05-10T04:53:29;10.40;;;3.90;;
76552;SDS011;65395;53.168;18.156;2023-05-10T04:55:56;5.40;;;3.40;;
76552;SDS011;65395;53.168;18.156;2023-05-10T04:58:23;7.50;;;3.80;;
76552;SDS011;65395;53.168;18.156;2023-05-10T05:00:50;7.70;;;3.40;;
76552;SDS011;65395;53.168;18.156;2023-05-10T05:03:16;7.90;;;3.80;;
76552;SDS011;65395;53.168;18.156;2023-05-10T05:05:43;8.20;;;4.40;;
76552;SDS011;65395;53.168;18.156;2023-05-10T05:08:11;6.20;;;3.50;;
76552;SDS011;65395;53.168;18.156;2023-05-10T05:10:37;8.40;;;3.60;;
76552;SDS011;65395;53.168;18.156;2023-05-10T05:13:04;10.00;;;3.80;;
76552;SDS011;65395;53.168;18.156;2023-05-10T05:15:31;7.40;;;3.70;;
76552;SDS011;65395;53.168;18.156;2023-05-10T05:17:58;7.40;;;3.80;;
76552;SDS011;65395;53.168;18.156;2023-05-10T05:20:25;9.50;;;3.90;;
76552;SDS011;65395;53.168;18.156;2023-05-10T05:22:51;8.60;;;3.90;;
76552;SDS011;65395;53.168;18.156;2023-05-10T05:25:18;8.70;;;3.60;;
76552;SDS011;65395;53.168;18.156;2023-05-10T05:27:45;8.80;;;3.80;;
76552;SDS011;65395;53.168;18.156;2023-05-10T05:30:12;6.20;;;3.40;;
76552;SDS011;65395;53.168;18.156;2023-05-10T05:32:38;9.20;;;4.10;;
76552;SDS011;65395;53.168;18.156;2023-05-10T05:35:06;11.10;;;4.00;;
76552;SDS011;65395;53.168;18.156;2023-05-10T05:37:33;7.20;;;3.60;;
76552;SDS011;65395;53.168;18.156;2023-05-10T05:40:01;10.30;;;4.00;;
76552;SDS011;65395;53.168;18.156;2023-05-10T05:42:29;8.80;;;3.50;;
76552;SDS011;65395;53.168;18.156;2023-05-10T05:44:57;4.80;;;3.30;;
76552;SDS011;65395;53.168;18.156;2023-05-10T05:47:24;7.50;;;3.70;;
76552;SDS011;65395;53.168;18.156;2023-05-10T05:49:51;5.60;;;3.40;;
76552;SDS011;65395;53.168;18.156;2023-05-10T05:52:18;5.80;;;3.40;;
76552;SDS011;65395;53.168;18.156;2023-05-10T05:54:46;7.20;;;3.80;;
76552;SDS011;65395;53.168;18.156;2023-05-10T05:57:13;6.00;;;3.50;;
76552;SDS011;65395;53.168;18.156;2023-05-10T05:59:40;5.70;;;3.30;;
76552;SDS011;65395;53.168;18.156;2023-05-10T06:02:10;12.50;;;3.30;;
76552;SDS011;65395;53.168;18.156;2023-05-10T06:04:37;5.40;;;3.20;;
76552;SDS011;65395;53.168;18.156;2023-05-10T06:07:04;8.60;;;3.60;;
76552;SDS011;65395;53.168;18.156;2023-05-10T06:09:31;6.00;;;3.10;;
76552;SDS011;65395;53.168;18.156;2023-05-10T06:11:58;5.50;;;3.10;;
76552;SDS011;65395;53.168;18.156;2023-05-10T06:14:25;8.90;;;3.50;;
76552;SDS011;65395;53.168;18.156;2023-05-10T06:16:52;5.90;;;2.90;;
76552;SDS011;65395;53.168;18.156;2023-05-10T06:19:19;7.70;;;3.20;;
76552;SDS011;65395;53.168;18.156;2023-05-10T06:21:46;6.80;;;2.90;;
76552;SDS011;65395;53.168;18.156;2023-05-10T06:24:13;7.80;;;2.90;;
76552;SDS011;65395;53.168;18.156;2023-05-10T06:26:40;4.80;;;2.80;;
76552;SDS011;65395;53.168;18.156;2023-05-10T06:29:07;9.40;;;2.50;;
76552;SDS011;65395;53.168;18.156;2023-05-10T06:31:34;8.70;;;2.90;;
76552;SDS011;65395;53.168;18.156;2023-05-10T06:34:01;8.40;;;2.70;;
76552;SDS011;65395;53.168;18.156;2023-05-10T06:36:28;6.10;;;2.70;;
76552;SDS011;65395;53.168;18.156;2023-05-10T06:38:55;6.30;;;3.00;;
76552;SDS011;65395;53.168;18.156;2023-05-10T06:41:22;7.10;;;2.60;;
76552;SDS011;65395;53.168;18.156;2023-05-10T06:43:48;4.90;;;2.60;;
76552;SDS011;65395;53.168;18.156;2023-05-10T06:46:15;11.40;;;2.70;;
76552;SDS011;65395;53.168;18.156;2023-05-10T06:48:42;7.20;;;2.80;;
76552;SDS011;65395;53.168;18.156;2023-05-10T06:51:09;7.30;;;2.80;;
76552;SDS011;65395;53.168;18.156;2023-05-10T06:53:36;4.50;;;2.70;;
76552;SDS011;65395;53.168;18.156;2023-05-10T06:56:03;4.90;;;2.70;;
76552;SDS011;65395;53.168;18.156;2023-05-10T06:58:30;4.70;;;2.40;;
76552;SDS011;65395;53.168;18.156;2023-05-10T07:01:02;5.00;;;2.20;;
76552;SDS011;65395;53.168;18.156;2023-05-10T07:03:30;6.40;;;2.50;;
76552;SDS011;65395;53.168;18.156;2023-05-10T07:06:04;7.10;;;2.70;;
76552;SDS011;65395;53.168;18.156;2023-05-10T07:08:33;4.40;;;2.40;;
76552;SDS011;65395;53.168;18.156;2023-05-10T07:11:01;5.10;;;2.40;;
76552;SDS011;65395;53.168;18.156;2023-05-10T07:13:31;9.20;;;3.10;;
76552;SDS011;65395;53.168;18.156;2023-05-10T07:15:58;4.10;;;2.50;;
76552;SDS011;65395;53.168;18.156;2023-05-10T07:18:25;8.20;;;2.50;;
76552;SDS011;65395;53.168;18.156;2023-05-10T07:20:52;7.10;;;2.60;;
76552;SDS011;65395;53.168;18.156;2023-05-10T07:23:19;5.90;;;2.60;;
76552;SDS011;65395;53.168;18.156;2023-05-10T07:25:47;4.20;;;2.40;;
76552;SDS011;65395;53.168;18.156;2023-05-10T07:28:15;3.70;;;2.30;;
76552;SDS011;65395;53.168;18.156;2023-05-10T07:30:42;6.30;;;2.60;;
76552;SDS011;65395;53.168;18.156;2023-05-10T07:33:10;4.00;;;2.30;;
76552;SDS011;65395;53.168;18.156;2023-05-10T07:35:38;4.90;;;2.80;;
76552;SDS011;65395;53.168;18.156;2023-05-10T07:38:05;4.90;;;2.60;;
76552;SDS011;65395;53.168;18.156;2023-05-10T07:40:32;5.20;;;2.30;;
76552;SDS011;65395;53.168;18.156;2023-05-10T07:42:59;9.80;;;2.70;;
76552;SDS011;65395;53.168;18.156;2023-05-10T07:45:28;13.70;;;2.90;;
76552;SDS011;65395;53.168;18.156;2023-05-10T07:47:54;5.70;;;2.40;;
76552;SDS011;65395;53.168;18.156;2023-05-10T07:50:21;3.50;;;2.40;;
76552;SDS011;65395;53.168;18.156;2023-05-10T07:52:48;3.50;;;2.20;;
76552;SDS011;65395;53.168;18.156;2023-05-10T07:55:15;5.30;;;2.40;;
76552;SDS011;65395;53.168;18.156;2023-05-10T07:57:42;6.40;;;2.30;;
76552;SDS011;65395;53.168;18.156;2023-05-10T08:00:11;18.60;;;2.60;;
76552;SDS011;65395;53.168;18.156;2023-05-10T08:02:40;4.90;;;2.40;;
76552;SDS011;65395;53.168;18.156;2023-05-10T08:05:07;6.50;;;2.30;;
76552;SDS011;65395;53.168;18.156;2023-05-10T08:07:34;3.30;;;2.20;;
76552;SDS011;65395;53.168;18.156;2023-05-10T08:10:02;7.00;;;2.30;;
76552;SDS011;65395;53.168;18.156;2023-05-10T08:12:29;5.90;;;2.90;;
76552;SDS011;65395;53.168;18.156;2023-05-10T08:14:56;6.30;;;2.30;;
76552;SDS011;65395;53.168;18.156;2023-05-10T08:17:23;4.30;;;2.30;;
76552;SDS011;65395;53.168;18.156;2023-05-10T08:19:50;8.70;;;2.40;;
76552;SDS011;65395;53.168;18.156;2023-05-10T08:22:17;5.10;;;2.20;;
76552;SDS011;65395;53.168;18.156;2023-05-10T08:24:44;5.50;;;2.50;;
76552;SDS011;65395;53.168;18.156;2023-05-10T08:27:11;8.30;;;2.20;;
76552;SDS011;65395;53.168;18.156;2023-05-10T08:29:38;4.70;;;1.90;;
76552;SDS011;65395;53.168;18.156;2023-05-10T08:32:04;5.50;;;2.00;;
76552;SDS011;65395;53.168;18.156;2023-05-10T08:34:31;7.50;;;2.30;;
76552;SDS011;65395;53.168;18.156;2023-05-10T08:36:58;4.00;;;1.90;;
76552;SDS011;65395;53.168;18.156;2023-05-10T08:39:24;4.70;;;2.10;;
76552;SDS011;65395;53.168;18.156;2023-05-10T08:41:51;5.30;;;2.10;;
76552;SDS011;65395;53.168;18.156;2023-05-10T08:44:20;4.20;;;2.00;;
76552;SDS011;65395;53.168;18.156;2023-05-10T08:46:47;9.50;;;2.10;;
76552;SDS011;65395;53.168;18.156;2023-05-10T08:49:19;6.20;;;2.20;;
76552;SDS011;65395;53.168;18.156;2023-05-10T08:51:49;9.10;;;2.30;;
76552;SDS011;65395;53.168;18.156;2023-05-10T08:54:18;5.30;;;2.00;;
76552;SDS011;65395;53.168;18.156;2023-05-10T08:56:45;4.10;;;1.80;;
76552;SDS011;65395;53.168;18.156;2023-05-10T08:59:13;3.20;;;2.20;;
76552;SDS011;65395;53.168;18.156;2023-05-10T09:01:40;4.00;;;2.10;;
76552;SDS011;65395;53.168;18.156;2023-05-10T09:04:10;7.20;;;2.10;;
76552;SDS011;65395;53.168;18.156;2023-05-10T09:06:38;7.20;;;2.00;;
76552;SDS011;65395;53.168;18.156;2023-05-10T09:09:05;4.70;;;2.20;;
76552;SDS011;65395;53.168;18.156;2023-05-10T09:11:32;8.00;;;2.00;;
76552;SDS011;65395;53.168;18.156;2023-05-10T09:13:59;6.50;;;2.10;;
76552;SDS011;65395;53.168;18.156;2023-05-10T09:16:27;5.20;;;2.20;;
76552;SDS011;65395;53.168;18.156;2023-05-10T09:22:10;4.50;;;1.80;;
76552;SDS011;65395;53.168;18.156;2023-05-10T09:24:37;4.10;;;2.10;;
76552;SDS011;65395;53.168;18.156;2023-05-10T09:33:43;3.40;;;1.80;;
76552;SDS011;65395;53.168;18.156;2023-05-10T09:36:11;4.20;;;1.90;;
76552;SDS011;65395;53.168;18.156;2023-05-10T09:38:46;5.50;;;2.20;;
76552;SDS011;65395;53.168;18.156;2023-05-10T09:41:16;4.10;;;2.00;;
76552;SDS011;65395;53.168;18.156;2023-05-10T09:43:44;5.50;;;2.10;;
76552;SDS011;65395;53.168;18.156;2023-05-10T09:46:11;4.50;;;2.20;;
76552;SDS011;65395;53.168;18.156;2023-05-10T09:48:41;4.00;;;2.10;;
76552;SDS011;65395;53.168;18.156;2023-05-10T09:51:10;3.60;;;2.10;;
76552;SDS011;65395;53.168;18.156;2023-05-10T09:53:37;3.50;;;2.00;;
76552;SDS011;65395;53.168;18.156;2023-05-10T09:56:04;5.70;;;2.10;;
76552;SDS011;65395;53.168;18.156;2023-05-10T09:58:30;5.10;;;1.80;;
76552;SDS011;65395;53.168;18.156;2023-05-10T10:00:57;10.20;;;2.20;;
76552;SDS011;65395;53.168;18.156;2023-05-10T10:03:24;11.50;;;2.40;;
76552;SDS011;65395;53.168;18.156;2023-05-10T10:05:51;6.80;;;2.30;;
76552;SDS011;65395;53.168;18.156;2023-05-10T10:08:19;3.80;;;2.30;;
76552;SDS011;65395;53.168;18.156;2023-05-10T10:10:46;8.30;;;2.10;;
76552;SDS011;65395;53.168;18.156;2023-05-10T10:13:14;5.20;;;2.20;;
76552;SDS011;65395;53.168;18.156;2023-05-10T10:15:41;3.00;;;2.00;;
76552;SDS011;65395;53.168;18.156;2023-05-10T10:18:12;6.00;;;2.40;;
76552;SDS011;65395;53.168;18.156;2023-05-10T10:20:41;5.40;;;2.10;;
76552;SDS011;65395;53.168;18.156;2023-05-10T10:23:08;5.60;;;1.80;;
76552;SDS011;65395;53.168;18.156;2023-05-10T10:25:35;9.50;;;2.10;;
76552;SDS011;65395;53.168;18.156;2023-05-10T10:28:09;3.90;;;2.20;;
76552;SDS011;65395;53.168;18.156;2023-05-10T10:30:48;8.20;;;2.30;;
76552;SDS011;65395;53.168;18.156;2023-05-10T10:33:30;4.20;;;2.20;;
76552;SDS011;65395;53.168;18.156;2023-05-10T10:36:06;5.60;;;2.40;;
76552;SDS011;65395;53.168;18.156;2023-05-10T10:38:37;6.10;;;2.30;;
76552;SDS011;65395;53.168;18.156;2023-05-10T10:49:32;5.10;;;2.40;;
76552;SDS011;65395;53.168;18.156;2023-05-10T10:55:00;17.60;;;2.20;;
76552;SDS011;65395;53.168;18.156;2023-05-10T10:57:29;7.20;;;2.30;;
76552;SDS011;65395;53.168;18.156;2023-05-10T11:00:17;5.60;;;2.30;;
76552;SDS011;65395;53.168;18.156;2023-05-10T11:03:09;5.10;;;2.70;;
76552;SDS011;65395;53.168;18.156;2023-05-10T11:05:44;5.10;;;2.40;;
76552;SDS011;65395;53.168;18.156;2023-05-10T11:08:26;6.10;;;2.50;;
76552;SDS011;65395;53.168;18.156;2023-05-10T11:11:02;9.30;;;2.50;;
76552;SDS011;65395;53.168;18.156;2023-05-10T11:13:41;4.40;;;2.50;;
76552;SDS011;65395;53.168;18.156;2023-05-10T11:16:10;11.20;;;2.50;;
76552;SDS011;65395;53.168;18.156;2023-05-10T11:21:34;7.20;;;2.30;;
76552;SDS011;65395;53.168;18.156;2023-05-10T11:24:13;5.90;;;2.40;;
76552;SDS011;65395;53.168;18.156;2023-05-10T11:26:41;5.60;;;2.40;;
76552;SDS011;65395;53.168;18.156;2023-05-10T11:29:08;7.90;;;2.30;;
76552;SDS011;65395;53.168;18.156;2023-05-10T11:31:41;5.50;;;2.20;;
76552;SDS011;65395;53.168;18.156;2023-05-10T11:34:10;5.20;;;2.10;;
76552;SDS011;65395;53.168;18.156;2023-05-10T11:36:37;11.10;;;2.50;;
76552;SDS011;65395;53.168;18.156;2023-05-10T11:39:04;9.20;;;2.00;;
76552;SDS011;65395;53.168;18.156;2023-05-10T11:41:32;6.50;;;2.10;;
76552;SDS011;65395;53.168;18.156;2023-05-10T11:43:59;16.00;;;2.40;;
76552;SDS011;65395;53.168;18.156;2023-05-10T11:46:26;5.70;;;2.20;;
76552;SDS011;65395;53.168;18.156;2023-05-10T11:48:57;15.00;;;2.20;;
76552;SDS011;65395;53.168;18.156;2023-05-10T11:51:27;6.80;;;2.40;;
76552;SDS011;65395;53.168;18.156;2023-05-10T11:53:55;6.30;;;2.30;;
76552;SDS011;65395;53.168;18.156;2023-05-10T11:56:22;5.90;;;2.20;;
76552;SDS011;65395;53.168;18.156;2023-05-10T11:58:56;9.80;;;2.20;;
76552;SDS011;65395;53.168;18.156;2023-05-10T12:01:24;5.80;;;2.30;;
76552;SDS011;65395;53.168;18.156;2023-05-10T12:03:54;6.90;;;2.40;;
76552;SDS011;65395;53.168;18.156;2023-05-10T12:06:26;6.70;;;2.30;;
76552;SDS011;65395;53.168;18.156;2023-05-10T12:08:55;7.10;;;2.00;;
76552;SDS011;65395;53.168;18.156;2023-05-10T12:11:26;4.60;;;2.00;;
76552;SDS011;65395;53.168;18.156;2023-05-10T12:13:54;5.00;;;2.30;;
76552;SDS011;65395;53.168;18.156;2023-05-10T12:16:23;10.00;;;2.10;;
76552;SDS011;65395;53.168;18.156;2023-05-10T12:18:52;6.30;;;2.30;;
76552;SDS011;65395;53.168;18.156;2023-05-10T12:21:23;7.90;;;2.10;;
76552;SDS011;65395;53.168;18.156;2023-05-10T12:23:51;8.80;;;2.10;;
76552;SDS011;65395;53.168;18.156;2023-05-10T12:26:21;5.20;;;2.50;;
76552;SDS011;65395;53.168;18.156;2023-05-10T12:28:49;7.70;;;2.80;;
76552;SDS011;65395;53.168;18.156;2023-05-10T12:31:16;8.30;;;2.40;;
76552;SDS011;65395;53.168;18.156;2023-05-10T12:33:43;3.50;;;2.50;;
76552;SDS011;65395;53.168;18.156;2023-05-10T12:36:13;7.90;;;2.50;;
76552;SDS011;65395;53.168;18.156;2023-05-10T12:38:42;7.20;;;2.50;;
76552;SDS011;65395;53.168;18.156;2023-05-10T12:41:14;7.60;;;2.40;;
76552;SDS011;65395;53.168;18.156;2023-05-10T12:43:42;4.40;;;2.20;;
76552;SDS011;65395;53.168;18.156;2023-05-10T12:46:11;6.40;;;2.00;;
76552;SDS011;65395;53.168;18.156;2023-05-10T12:48:40;6.50;;;2.20;;
76552;SDS011;65395;53.168;18.156;2023-05-10T12:51:08;2.60;;;2.00;;
76552;SDS011;65395;53.168;18.156;2023-05-10T12:53:39;3.80;;;2.10;;
76552;SDS011;65395;53.168;18.156;2023-05-10T12:56:06;6.30;;;2.10;;
76552;SDS011;65395;53.168;18.156;2023-05-10T12:58:33;7.00;;;2.30;;
76552;SDS011;65395;53.168;18.156;2023-05-10T13:01:01;5.70;;;2.10;;
76552;SDS011;65395;53.168;18.156;2023-05-10T13:03:29;7.70;;;2.00;;
76552;SDS011;65395;53.168;18.156;2023-05-10T13:05:56;7.40;;;2.40;;
76552;SDS011;65395;53.168;18.156;2023-05-10T13:08:23;6.70;;;2.20;;
76552;SDS011;65395;53.168;18.156;2023-05-10T13:10:51;4.60;;;1.90;;
76552;SDS011;65395;53.168;18.156;2023-05-10T13:13:18;11.20;;;2.20;;
76552;SDS011;65395;53.168;18.156;2023-05-10T13:15:44;4.50;;;2.10;;
76552;SDS011;65395;53.168;18.156;2023-05-10T13:18:11;14.80;;;2.50;;
76552;SDS011;65395;53.168;18.156;2023-05-10T13:20:38;5.50;;;2.40;;
76552;SDS011;65395;53.168;18.156;2023-05-10T13:23:05;11.80;;;2.30;;
76552;SDS011;65395;53.168;18.156;2023-05-10T13:25:32;9.50;;;2.10;;
76552;SDS011;65395;53.168;18.156;2023-05-10T13:28:00;3.80;;;2.40;;
76552;SDS011;65395;53.168;18.156;2023-05-10T13:30:27;7.20;;;2.10;;
76552;SDS011;65395;53.168;18.156;2023-05-10T13:32:55;9.70;;;2.20;;
76552;SDS011;65395;53.168;18.156;2023-05-10T13:35:22;3.50;;;2.30;;
76552;SDS011;65395;53.168;18.156;2023-05-10T13:37:49;5.30;;;2.00;;
76552;SDS011;65395;53.168;18.156;2023-05-10T13:40:16;6.80;;;2.10;;
76552;SDS011;65395;53.168;18.156;2023-05-10T13:42:43;16.60;;;2.70;;
76552;SDS011;65395;53.168;18.156;2023-05-10T13:45:09;7.10;;;2.50;;
76552;SDS011;65395;53.168;18.156;2023-05-10T13:47:38;5.60;;;2.40;;
76552;SDS011;65395;53.168;18.156;2023-05-10T13:50:05;6.10;;;2.40;;
76552;SDS011;65395;53.168;18.156;2023-05-10T13:52:32;6.60;;;2.30;;
76552;SDS011;65395;53.168;18.156;2023-05-10T13:54:59;5.30;;;2.30;;
76552;SDS011;65395;53.168;18.156;2023-05-10T13:57:25;7.70;;;2.30;;
76552;SDS011;65395;53.168;18.156;2023-05-10T13:59:52;8.60;;;2.60;;
76552;SDS011;65395;53.168;18.156;2023-05-10T14:02:20;7.20;;;2.50;;
76552;SDS011;65395;53.168;18.156;2023-05-10T14:04:46;4.70;;;2.30;;
76552;SDS011;65395;53.168;18.156;2023-05-10T14:07:14;5.70;;;2.50;;
76552;SDS011;65395;53.168;18.156;2023-05-10T14:09:41;6.60;;;2.40;;
76552;SDS011;65395;53.168;18.156;2023-05-10T14:12:08;5.60;;;2.50;;
76552;SDS011;65395;53.168;18.156;2023-05-10T14:14:35;8.20;;;2.40;;
76552;SDS011;65395;53.168;18.156;2023-05-10T14:17:01;3.50;;;2.40;;
76552;SDS011;65395;53.168;18.156;2023-05-10T14:19:28;9.00;;;2.90;;
76552;SDS011;65395;53.168;18.156;2023-05-10T14:21:58;7.70;;;2.60;;
76552;SDS011;65395;53.168;18.156;2023-05-10T14:24:26;10.00;;;2.50;;
76552;SDS011;65395;53.168;18.156;2023-05-10T14:26:53;6.30;;;2.50;;
76552;SDS011;65395;53.168;18.156;2023-05-10T14:29:20;8.00;;;2.60;;
76552;SDS011;65395;53.168;18.156;2023-05-10T14:31:48;12.30;;;2.80;;
76552;SDS011;65395;53.168;18.156;2023-05-10T14:34:15;8.20;;;2.40;;
76552;SDS011;65395;53.168;18.156;2023-05-10T14:36:42;5.60;;;2.70;;
76552;SDS011;65395;53.168;18.156;2023-05-10T14:39:08;4.60;;;2.40;;
76552;SDS011;65395;53.168;18.156;2023-05-10T14:41:36;8.20;;;2.80;;
76552;SDS011;65395;53.168;18.156;2023-05-10T14:44:03;8.60;;;2.50;;
76552;SDS011;65395;53.168;18.156;2023-05-10T14:46:30;6.40;;;2.70;;
76552;SDS011;65395;53.168;18.156;2023-05-10T14:48:57;5.80;;;2.60;;
76552;SDS011;65395;53.168;18.156;2023-05-10T14:51:24;8.80;;;2.90;;
76552;SDS011;65395;53.168;18.156;2023-05-10T14:53:51;6.90;;;2.90;;
76552;SDS011;65395;53.168;18.156;2023-05-10T14:56:18;7.40;;;2.80;;
76552;SDS011;65395;53.168;18.156;2023-05-10T14:58:44;5.20;;;2.60;;
76552;SDS011;65395;53.168;18.156;2023-05-10T15:01:11;4.60;;;2.40;;
76552;SDS011;65395;53.168;18.156;2023-05-10T15:03:38;4.30;;;2.50;;
76552;SDS011;65395;53.168;18.156;2023-05-10T15:06:05;6.90;;;2.50;;
76552;SDS011;65395;53.168;18.156;2023-05-10T15:08:32;4.40;;;2.70;;
76552;SDS011;65395;53.168;18.156;2023-05-10T15:10:58;5.70;;;2.60;;
76552;SDS011;65395;53.168;18.156;2023-05-10T15:13:25;6.50;;;2.70;;
76552;SDS011;65395;53.168;18.156;2023-05-10T15:15:52;5.70;;;3.00;;